Delburne, Canada
Current Conditions -  °F | °C
As of 3:00 PM on Friday 31 Oct 2014 (Local Time) from CYQF Reporting Station
Overcast Overcast  
Wind Chill: 37°   Ceiling: 10000
Heat Index: 43°   Visibility: 15mi
Dew Point: 36°   Wind: 9mph
Humidity: 76%   Direction: 310°NW
Pressure: 29.61"   Gusts: NA
Location:  52.2°N, 113.23°W
Report Text: CYQF 312100Z 31008KT 15SM FEW080 BKN100 OVC140 06/02 A2961 RMK AC2AC4AC2 SLP051
Loading
Personal Weather Stations






























Interactive Weather Map New forecast layout! Learn more

10-Day Weather Forecast

Advertisements
Track Severe Weather on mobile